»·PEaware :: N72662 KSBA-L52

N72662 :: KSBA-L52

FLIGHT INFORMATION

Flight Status: Arrived
Operator: Privately registered:
United States
More flights under this callsign
Pilot: Vincent C. (16586)
Aircraft: CESSNA 172 SKYHAWK
(C172)
More flights by this aircraft type
Origin: KSBA Santa Barbara Mun
United States
Destination: L52 Oceano Co
United States
More flights between these airports :: More routes between these airports
Route: +
File this flight plan on PilotEdge
Remarks:
Altitude:
(Current/Filed)
6,500ft
Speed:
(Current/Filed)
0kts
Departed: 10-Dec-18 05:24 PM
Arrived: 10-Dec-18 06:15 PM
Distance/Time
Traveled:
56nm/0:51
Distance/Time
To Go:
Arrived

Flight Plot

Page will automatically refresh every two minutes.

Flight plan parsing failed; only flown route is shown


Map Options




Map Legend


Flown Route
Filed Route
Departure Airport
Arrival Airport
Navaid (VOR, NDB)
Fix

Horizontal Profiles

Position Reports

Time Latitude Longitude Heading Altitude Ground
Speed
10-Dec-18 17:11 34.432570 -119.835083 75 14ft 0kts
10-Dec-18 17:12 34.432570 -119.835083 75 14ft 0kts
10-Dec-18 17:13 34.432570 -119.835083 75 14ft 0kts
10-Dec-18 17:14 34.432570 -119.835083 75 14ft 0kts
10-Dec-18 17:15 34.432570 -119.835083 75 14ft 0kts
10-Dec-18 17:16 34.432570 -119.835083 75 14ft 0kts
10-Dec-18 17:17 34.432570 -119.835083 75 14ft 0kts
10-Dec-18 17:18 34.432488 -119.834888 126 14ft 2kts
10-Dec-18 17:19 34.430057 -119.835318 178 11ft 16kts
10-Dec-18 17:20 34.428966 -119.834727 137 10ft 0kts
10-Dec-18 17:21 34.428895 -119.834666 155 10ft 4kts
10-Dec-18 17:22 34.428530 -119.834648 181 10ft 10kts
10-Dec-18 17:23 34.427771 -119.844831 268 190ft 71kts
10-Dec-18 17:24 34.427918 -119.869210 266 986ft 73kts
10-Dec-18 17:25 34.427991 -119.893082 272 1731ft 74kts
10-Dec-18 17:26 34.430250 -119.917657 275 2462ft 74kts
10-Dec-18 17:27 34.430378 -119.941788 272 3160ft 73kts
10-Dec-18 17:28 34.434127 -119.965783 288 3828ft 72kts
10-Dec-18 17:29 34.444904 -119.986520 301 4450ft 74kts
10-Dec-18 17:30 34.460619 -120.001519 321 5020ft 79kts
10-Dec-18 17:31 34.479041 -120.018529 319 5513ft 88kts
10-Dec-18 17:32 34.493634 -120.039672 291 6046ft 82kts
10-Dec-18 17:33 34.506513 -120.063486 299 6506ft 87kts
10-Dec-18 17:34 34.527271 -120.084427 324 6555ft 99kts
10-Dec-18 17:35 34.553417 -120.095853 335 6558ft 105kts
10-Dec-18 17:36 34.580230 -120.108801 331 6519ft 101kts
10-Dec-18 17:37 34.602981 -120.126791 314 6464ft 95kts
10-Dec-18 17:38 34.622070 -120.146305 307 6502ft 88kts
10-Dec-18 17:39 34.640274 -120.166503 313 6500ft 89kts
10-Dec-18 17:40 34.658957 -120.186200 315 6497ft 89kts
10-Dec-18 17:41 34.680387 -120.202290 327 6495ft 92kts
10-Dec-18 17:42 34.701325 -120.219195 323 6501ft 92kts
10-Dec-18 17:43 34.724771 -120.234288 324 6584ft 98kts
10-Dec-18 17:44 34.749204 -120.249901 326 6671ft 98kts
10-Dec-18 17:45 34.775460 -120.264695 334 6505ft 99kts
10-Dec-18 17:46 34.801036 -120.273536 332 6454ft 89kts
10-Dec-18 17:47 34.822653 -120.285629 326 6496ft 84kts
10-Dec-18 17:48 34.841131 -120.302031 314 6511ft 81kts
10-Dec-18 17:49 34.859014 -120.318721 306 6531ft 79kts
10-Dec-18 17:50 34.874065 -120.338384 307 6537ft 79kts
10-Dec-18 17:51 34.892417 -120.354164 316 6545ft 81kts
10-Dec-18 17:52 34.909584 -120.371660 314 6552ft 80kts
10-Dec-18 17:53 34.927711 -120.388249 318 6556ft 82kts
10-Dec-18 17:54 34.945482 -120.405374 311 6562ft 81kts
10-Dec-18 17:55 34.962305 -120.424477 314 6539ft 84kts
10-Dec-18 17:56 34.980662 -120.443231 313 6468ft 90kts
10-Dec-18 17:57 34.999512 -120.464849 314 5977ft 94kts
10-Dec-18 17:58 35.018891 -120.487112 311 5339ft 100kts
10-Dec-18 17:59 35.037618 -120.511575 310 4736ft 98kts
10-Dec-18 18:00 35.055895 -120.538200 310 3942ft 108kts
10-Dec-18 18:01 35.076121 -120.565510 316 3010ft 102kts
10-Dec-18 18:02 35.091496 -120.591759 299 2109ft 87kts
10-Dec-18 18:03 35.105856 -120.615628 347 1879ft 97kts
10-Dec-18 18:04 35.127962 -120.602508 92 1590ft 97kts
10-Dec-18 18:05 35.121217 -120.620564 282 1215ft 85kts
10-Dec-18 18:06 35.132622 -120.644801 343 1872ft 76kts
10-Dec-18 18:07 35.139457 -120.627157 106 2121ft 115kts
10-Dec-18 18:08 35.114145 -120.619431 185 1874ft 113kts
10-Dec-18 18:09 35.111451 -120.604444 5 2199ft 73kts
10-Dec-18 18:10 35.130836 -120.613459 314 2214ft 77kts
10-Dec-18 18:11 35.139628 -120.630736 200 1668ft 92kts
10-Dec-18 18:12 35.113603 -120.626701 239 814ft 94kts
10-Dec-18 18:13 35.110961 -120.639704 112 624ft 84kts
10-Dec-18 18:14 35.101316 -120.621843 121 16ft 24kts
10-Dec-18 18:15 35.099930 -120.619383 157 17ft 5kts
10-Dec-18 18:16 35.100531 -120.621336 302 17ft 9kts
10-Dec-18 18:17 35.101653 -120.622295 33 16ft 9kts
10-Dec-18 18:18 35.103377 -120.624183 301 15ft 8kts
10-Dec-18 18:19 35.103374 -120.624553 206 14ft 0kts
10-Dec-18 18:20 35.103374 -120.624553 206 14ft 0kts

Navigation Log

Ident Type
Flight plan parsing failed, navigation log unavailable